Time;durP1;ratioP1;P1;durP2;ratioP2;P2;SDS_P1;SDS_P2;PMS_P1;PMS_P2;Temp;Humidity;BMP_temperature;BMP_pressure;BME280_temperature;BME280_humidity;BME280_pressure;Samples;Min_cycle;Max_cycle;Signal;HPM_P1;HPM_P2
2023/10/02 00:01:06;;;;;;;24.80;12.30;;;17.70;99.90;;;;;;5114252;28;20432;-52
2023/10/02 00:03:34;;;;;;;22.23;11.93;;;17.70;99.90;;;;;;5114223;28;20416;-54
2023/10/02 00:06:00;;;;;;;25.40;12.87;;;17.70;60.70;;;;;;5114311;28;20479;-51
2023/10/02 00:08:31;;;;;;;26.10;11.57;;;17.60;99.90;;;;;;5114096;28;20521;-52
2023/10/02 00:14:34;;;;;;;29.37;12.70;;;17.60;99.90;;;;;;5113984;28;20401;-52
2023/10/02 00:17:04;;;;;;;30.17;13.47;;;17.60;99.90;;;;;;5114191;28;20425;-51
2023/10/02 00:19:33;;;;;;;23.43;12.57;;;17.50;99.90;;;;;;5113798;28;20425;-51
2023/10/02 00:22:08;;;;;;;20.80;11.37;;;17.50;99.90;;;;;;5114045;28;20409;-51
2023/10/02 00:24:38;;;;;;;24.13;12.23;;;17.50;99.90;;;;;;5113651;28;20572;-53
2023/10/02 00:27:08;;;;;;;20.67;10.83;;;17.50;1.00;;;;;;5113698;28;20497;-53
2023/10/02 00:29:34;;;;;;;26.43;12.13;;;17.50;1.00;;;;;;5113575;28;20491;-52
2023/10/02 00:32:10;;;;;;;31.97;12.80;;;17.40;1.00;;;;;;5113841;28;20421;-52
2023/10/02 00:34:37;;;;;;;26.40;12.40;;;17.50;1.00;;;;;;5113633;28;20417;-51
2023/10/02 00:37:05;;;;;;;26.50;13.23;;;17.50;1.00;;;;;;5113517;28;20430;-52
2023/10/02 00:39:32;;;;;;;22.90;12.43;;;17.40;1.00;;;;;;5113740;27;20502;-51
2023/10/02 00:42:45;;;;;;;27.17;13.37;;;17.40;1.00;;;;;;5113374;28;20446;-51
2023/10/02 00:44:52;;;;;;;22.60;12.80;;;17.40;1.00;;;;;;5105530;28;20470;-51
2023/10/02 00:47:41;;;;;;;24.40;11.97;;;17.50;1.00;;;;;;5113418;28;20407;-51
2023/10/02 00:50:21;;;;;;;25.57;12.70;;;17.40;1.00;;;;;;5112819;28;20403;-51
2023/10/02 00:53:03;;;;;;;28.40;13.53;;;17.40;1.00;;;;;;5111899;28;20406;-52
2023/10/02 00:55:33;;;;;;;28.97;13.97;;;17.50;1.00;;;;;;5113224;28;20531;-51
2023/10/02 00:58:01;;;;;;;25.03;13.80;;;17.50;1.00;;;;;;5113083;28;20480;-51
2023/10/02 01:00:35;;;;;;;24.60;12.87;;;17.50;1.00;;;;;;5113118;28;20422;-52
2023/10/02 01:03:08;;;;;;;26.17;13.70;;;17.50;1.00;;;;;;5113403;28;20414;-53
2023/10/02 01:05:41;;;;;;;24.20;12.33;;;17.50;1.00;;;;;;5113055;28;20462;-52
2023/10/02 01:08:24;;;;;;;24.70;12.50;;;17.50;1.00;;;;;;5113071;28;20403;-51
2023/10/02 01:10:56;;;;;;;31.47;13.93;;;17.60;1.00;;;;;;5113005;28;20412;-51
2023/10/02 01:13:34;;;;;;;22.23;12.77;;;17.50;99.90;;;;;;5112939;28;20442;-52
2023/10/02 01:16:09;;;;;;;25.43;13.20;;;17.50;99.90;;;;;;5113134;28;20410;-51
2023/10/02 01:18:38;;;;;;;25.43;13.73;;;17.50;99.90;;;;;;5112840;28;20406;-51
2023/10/02 01:21:12;;;;;;;25.70;13.00;;;17.50;99.90;;;;;;5112644;28;20407;-52
2023/10/02 01:24:06;;;;;;;21.70;13.20;;;17.60;99.90;;;;;;5112587;28;20877;-52
2023/10/02 01:26:41;;;;;;;24.00;13.47;;;17.60;99.90;;;;;;5112938;28;20462;-52
2023/10/02 01:29:10;;;;;;;29.07;13.77;;;17.50;99.90;;;;;;5112528;28;20809;-53
2023/10/02 01:31:44;;;;;;;22.90;12.50;;;17.50;99.90;;;;;;5112760;28;20417;-51
2023/10/02 01:36:55;;;;;;;22.00;12.97;;;17.40;99.90;;;;;;5112713;28;20467;-51
2023/10/02 01:39:21;;;;;;;25.23;13.70;;;17.40;99.90;;;;;;5112676;28;20933;-52
2023/10/02 01:41:52;;;;;;;26.80;13.40;;;17.40;99.90;;;;;;5112631;28;20418;-53
2023/10/02 01:44:20;;;;;;;34.30;14.07;;;17.30;1.00;;;;;;5112617;28;20204;-51
2023/10/02 01:46:55;;;;;;;27.43;14.00;;;17.30;1.00;;;;;;5112306;28;20504;-52
2023/10/02 01:49:25;;;;;;;23.60;12.60;;;17.30;1.00;;;;;;5112750;28;20402;-52
2023/10/02 01:51:55;;;;;;;24.87;13.10;;;17.30;1.00;;;;;;5112485;28;20489;-50
2023/10/02 01:54:30;;;;;;;26.10;13.17;;;17.30;3.60;;;;;;5112584;28;20483;-52
2023/10/02 01:56:56;;;;;;;24.60;13.17;;;17.30;1.00;;;;;;5112635;28;20399;-52
2023/10/02 01:59:24;;;;;;;27.33;12.80;;;17.30;1.00;;;;;;5112560;28;20414;-52
2023/10/02 02:01:52;;;;;;;25.43;13.10;;;17.30;1.00;;;;;;5113695;28;20414;-51
2023/10/02 02:04:38;;;;;;;28.60;13.97;;;17.30;1.00;;;;;;5116453;28;20410;-52
2023/10/02 02:07:07;;;;;;;23.10;13.20;;;17.40;1.00;;;;;;5116173;27;20499;-53
2023/10/02 02:09:37;;;;;;;23.37;12.97;;;17.40;99.90;;;;;;5116768;28;20409;-52
2023/10/02 02:12:14;;;;;;;28.37;12.77;;;17.40;99.90;;;;;;5116687;27;20474;-53
2023/10/02 02:14:49;;;;;;;30.13;14.30;;;17.30;99.90;;;;;;5116330;28;20410;-52
2023/10/02 02:17:17;;;;;;;26.60;13.53;;;17.30;99.90;;;;;;5116270;28;20402;-51
2023/10/02 02:19:48;;;;;;;25.43;13.77;;;17.30;99.90;;;;;;5116205;28;20462;-52
2023/10/02 02:22:14;;;;;;;29.43;14.00;;;17.30;99.90;;;;;;5116199;28;20804;-52
2023/10/02 02:24:40;;;;;;;27.93;14.00;;;17.40;99.90;;;;;;5115668;28;20496;-53
2023/10/02 02:27:07;;;;;;;22.30;12.57;;;17.40;99.90;;;;;;5116062;28;20406;-52
2023/10/02 02:29:34;;;;;;;26.77;14.23;;;17.40;99.90;;;;;;5116274;28;20183;-52
2023/10/02 02:32:00;;;;;;;29.20;13.93;;;17.30;99.90;;;;;;5115713;28;20422;-51
2023/10/02 02:34:26;;;;;;;24.87;12.70;;;17.30;99.90;;;;;;5115931;28;20869;-52
2023/10/02 02:36:54;;;;;;;27.90;13.20;;;17.40;99.90;;;;;;5115898;28;20227;-53
2023/10/02 02:39:24;;;;;;;25.90;13.30;;;17.30;99.90;;;;;;5115857;28;20433;-52
2023/10/02 02:44:56;;;;;;;28.80;14.20;;;17.30;99.90;;;;;;5091703;28;20540;-52
2023/10/02 02:47:21;;;;;;;27.50;14.17;;;17.30;99.90;;;;;;5115351;28;20505;-53
2023/10/02 02:49:52;;;;;;;25.67;13.63;;;17.20;99.90;;;;;;5115321;28;20183;-52
2023/10/02 02:52:19;;;;;;;29.23;13.37;;;17.20;99.90;;;;;;5115609;28;20184;-52
2023/10/02 02:54:48;;;;;;;27.23;13.37;;;17.10;1.00;;;;;;5115237;28;20941;-52
2023/10/02 02:57:15;;;;;;;26.50;13.90;;;17.10;1.00;;;;;;5115497;28;20420;-52
2023/10/02 02:59:41;;;;;;;24.80;13.83;;;17.10;1.00;;;;;;5115169;28;20417;-52
2023/10/02 03:02:09;;;;;;;23.43;12.90;;;17.10;1.00;;;;;;5115165;28;20425;-52
2023/10/02 03:04:38;;;;;;;30.03;13.87;;;17.10;1.00;;;;;;5115361;28;20181;-52
2023/10/02 03:07:18;;;;;;;29.17;13.80;;;17.10;1.00;;;;;;5115499;28;20411;-52
2023/10/02 03:09:44;;;;;;;27.10;13.80;;;17.00;1.00;;;;;;5114991;28;20823;-52
2023/10/02 03:12:10;;;;;;;27.27;13.57;;;17.00;1.00;;;;;;5115181;28;20505;-53
2023/10/02 03:14:35;;;;;;;28.57;13.40;;;16.90;99.90;;;;;;5114487;28;20446;-54
2023/10/02 03:19:46;;;;;;;32.03;14.37;;;16.90;99.90;;;;;;5115200;28;20171;-53
2023/10/02 03:22:11;;;;;;;33.33;14.10;;;16.90;99.90;;;;;;5114843;28;20426;-53
2023/10/02 03:24:39;;;;;;;27.60;13.77;;;16.90;99.90;;;;;;5114930;28;20821;-53
2023/10/02 03:27:08;;;;;;;26.90;14.03;;;16.90;99.90;;;;;;5115132;28;20223;-53
2023/10/02 03:29:34;;;;;;;26.87;14.13;;;16.80;99.90;;;;;;5115313;28;20413;-52
2023/10/02 03:32:04;;;;;;;29.30;13.80;;;16.70;99.90;;;;;;5114741;28;20413;-52
2023/10/02 03:34:38;;;;;;;28.70;13.90;;;16.70;1.00;;;;;;5114840;28;20895;-52
2023/10/02 03:40:00;;;;;;;27.33;13.60;;;16.60;6.80;;;;;;5114793;28;20441;-54
2023/10/02 03:42:36;;;;;;;26.60;13.40;;;16.50;99.90;;;;;;5114641;28;20403;-52
2023/10/02 03:45:04;;;;;;;29.50;14.40;;;16.50;99.90;;;;;;5114826;28;20471;-51
2023/10/02 03:47:30;;;;;;;27.87;14.57;;;16.50;99.90;;;;;;5114523;28;20413;-51
2023/10/02 03:50:00;;;;;;;26.90;13.50;;;16.40;1.00;;;;;;5114189;27;20418;-52
2023/10/02 03:52:28;;;;;;;27.63;14.60;;;16.30;1.00;;;;;;5114540;28;20422;-51
2023/10/02 03:54:55;;;;;;;25.27;14.00;;;16.30;99.90;;;;;;5114113;28;20425;-51
2023/10/02 04:02:45;;;;;;;26.13;12.80;;;16.00;1.00;;;;;;5114348;28;20387;-51
2023/10/02 04:05:30;;;;;;;32.57;15.93;;;16.00;99.90;;;;;;5114020;28;20475;-52
2023/10/02 04:08:12;;;;;;;24.90;13.17;;;15.90;1.00;;;;;;5113897;28;20847;-53
2023/10/02 04:10:56;;;;;;;28.23;14.90;;;15.90;99.90;;;;;;5113894;28;20438;-52
2023/10/02 04:13:25;;;;;;;25.50;13.13;;;15.80;1.00;;;;;;5113815;28;20407;-51
2023/10/02 04:16:28;;;;;;;28.93;14.27;;;15.80;1.00;;;;;;5113887;28;20432;-52
2023/10/02 04:18:46;;;;;;;31.30;14.60;;;15.80;1.00;;;;;;5113661;28;20908;-52
2023/10/02 04:21:13;;;;;;;27.57;15.10;;;15.80;1.00;;;;;;5114022;28;20405;-51
2023/10/02 04:23:42;;;;;;;29.50;15.57;;;15.80;99.90;;;;;;5113310;28;20984;-52
2023/10/02 04:26:19;;;;;;;30.37;14.13;;;15.90;1.00;;;;;;5112716;28;20530;-52
2023/10/02 04:28:54;;;;;;;30.13;14.63;;;15.90;99.90;;;;;;5113775;27;20406;-52
2023/10/02 04:31:22;;;;;;;33.47;14.27;;;16.00;1.00;;;;;;5113689;28;20408;-52
2023/10/02 04:34:14;;;;;;;29.73;14.83;;;16.00;99.90;;;;;;5113586;28;20418;-51
2023/10/02 04:36:40;;;;;;;31.83;14.20;;;16.10;99.90;;;;;;5113407;28;20445;-55
2023/10/02 04:42:14;;;;;;;28.73;14.67;;;16.20;3.40;;;;;;5113547;28;20390;-52
2023/10/02 04:44:44;;;;;;;23.90;14.00;;;16.20;1.00;;;;;;5113409;28;20409;-52
2023/10/02 04:47:17;;;;;;;31.40;15.00;;;16.30;99.90;;;;;;5113408;28;20424;-52
2023/10/02 04:50:45;;;;;;;27.17;14.47;;;16.30;1.00;;;;;;5113359;28;20436;-53
2023/10/02 04:52:55;;;;;;;24.00;13.87;;;16.30;1.00;;;;;;5105324;28;20419;-51
2023/10/02 04:55:24;;;;;;;27.33;13.87;;;16.40;1.00;;;;;;5113264;28;20439;-51
2023/10/02 04:57:52;;;;;;;26.40;15.10;;;16.40;99.90;;;;;;5113178;28;20418;-53
2023/10/02 05:00:33;;;;;;;27.10;14.73;;;16.40;99.90;;;;;;5112748;28;20498;-52
2023/10/02 05:03:17;;;;;;;24.67;14.07;;;16.40;1.00;;;;;;5112831;28;20890;-51
2023/10/02 05:05:48;;;;;;;28.80;15.20;;;16.50;99.90;;;;;;5113011;28;20457;-52
2023/10/02 05:08:19;;;;;;;27.17;14.63;;;16.50;99.90;;;;;;5113034;28;20413;-51
2023/10/02 05:11:05;;;;;;;29.80;13.83;;;16.50;99.90;;;;;;5112988;28;20419;-52
2023/10/02 05:16:34;;;;;;;29.47;14.03;;;16.50;99.90;;;;;;5113004;28;20409;-51
2023/10/02 05:19:09;;;;;;;26.50;13.87;;;16.60;99.90;;;;;;5112941;28;20403;-52
2023/10/02 05:21:38;;;;;;;29.87;13.33;;;16.60;99.90;;;;;;5112845;28;20457;-52
2023/10/02 05:24:06;;;;;;;25.20;13.23;;;16.50;99.90;;;;;;5111484;28;20473;-52
2023/10/02 05:26:44;;;;;;;25.67;13.40;;;16.60;99.90;;;;;;5112421;28;20983;-52
2023/10/02 05:29:17;;;;;;;28.73;14.33;;;16.60;99.90;;;;;;5112795;28;20410;-53
2023/10/02 05:31:47;;;;;;;25.10;12.67;;;16.70;99.90;;;;;;5112682;28;20554;-52
2023/10/02 05:34:24;;;;;;;31.07;13.40;;;16.70;1.00;;;;;;5112330;28;20947;-52
2023/10/02 05:39:34;;;;;;;30.50;14.63;;;16.70;1.00;;;;;;5112907;28;20409;-52
2023/10/02 05:42:06;;;;;;;31.10;13.80;;;16.70;1.00;;;;;;5112425;28;20422;-52
2023/10/02 05:44:34;;;;;;;28.27;13.50;;;16.70;20.80;;;;;;5112608;28;20403;-52
2023/10/02 05:47:07;;;;;;;25.90;13.03;;;16.70;1.00;;;;;;5112542;28;20936;-52
2023/10/02 05:49:57;;;;;;;29.13;13.20;;;16.80;1.00;;;;;;5112639;28;20461;-52
2023/10/02 05:52:23;;;;;;;32.47;13.70;;;16.80;99.90;;;;;;5112598;28;20466;-52
2023/10/02 05:54:53;;;;;;;25.20;12.53;;;16.90;40.20;;;;;;5112499;28;20809;-54
2023/10/02 05:57:20;;;;;;;25.50;12.90;;;17.00;1.00;;;;;;5111037;28;20429;-51
2023/10/02 05:59:54;;;;;;;27.10;14.20;;;17.00;99.90;;;;;;5112548;28;20816;-52
2023/10/02 06:02:24;;;;;;;28.87;13.70;;;17.10;1.00;;;;;;5112495;28;20405;-53
2023/10/02 06:04:54;;;;;;;26.73;12.90;;;17.20;99.90;;;;;;5112365;28;20460;-53
2023/10/02 06:10:25;;;;;;;25.73;12.40;;;17.30;1.00;;;;;;5112478;28;20393;-53
2023/10/02 06:13:03;;;;;;;25.33;12.87;;;17.40;1.00;;;;;;5112414;28;20395;-50
2023/10/02 06:16:09;;;;;;;27.23;12.93;;;17.40;1.00;;;;;;5112048;28;20403;-52
2023/10/02 06:18:27;;;;;;;21.60;13.10;;;17.50;1.00;;;;;;5110224;28;20435;-53
2023/10/02 06:20:58;;;;;;;23.60;12.30;;;17.50;1.00;;;;;;5112004;28;20422;-53
2023/10/02 06:23:24;;;;;;;25.80;13.00;;;17.50;1.00;;;;;;5112108;28;20189;-52
2023/10/02 06:25:52;;;;;;;29.03;12.03;;;17.60;1.00;;;;;;5112221;28;21098;-53
2023/10/02 06:28:27;;;;;;;27.10;12.60;;;17.60;1.00;;;;;;5112213;28;20192;-51
2023/10/02 06:30:54;;;;;;;22.83;12.43;;;17.60;1.00;;;;;;5112173;28;20406;-53
2023/10/02 06:33:21;;;;;;;25.33;13.23;;;17.60;1.00;;;;;;5112304;28;20706;-51
2023/10/02 06:35:56;;;;;;;25.27;13.20;;;17.70;99.90;;;;;;5112176;28;20429;-51
2023/10/02 06:38:31;;;;;;;28.77;13.70;;;17.80;99.90;;;;;;5111846;28;20402;-51
2023/10/02 06:40:59;;;;;;;24.93;12.10;;;17.90;99.90;;;;;;5111825;28;20765;-53
2023/10/02 06:43:28;;;;;;;27.67;13.37;;;17.90;99.90;;;;;;5112058;28;20409;-51
2023/10/02 06:46:09;;;;;;;26.80;12.20;;;17.90;99.90;;;;;;5111941;28;20465;-51
2023/10/02 06:48:35;;;;;;;34.47;13.17;;;17.80;99.90;;;;;;5112576;28;20467;-51
2023/10/02 06:51:02;;;;;;;23.40;11.97;;;17.90;99.90;;;;;;5115327;28;20461;-52
2023/10/02 06:53:28;;;;;;;23.67;13.30;;;17.90;99.90;;;;;;5115561;28;20409;-51
2023/10/02 06:55:58;;;;;;;24.27;13.10;;;18.00;99.90;;;;;;5115182;28;20445;-51
2023/10/02 06:58:25;;;;;;;24.30;13.20;;;18.10;99.90;;;;;;5115521;28;20177;-52
2023/10/02 07:01:01;;;;;;;24.03;12.10;;;18.10;99.90;;;;;;5115567;28;20418;-52
2023/10/02 07:03:27;;;;;;;23.20;12.23;;;18.10;99.90;;;;;;5115457;27;20414;-51
2023/10/02 07:05:53;;;;;;;21.23;11.80;;;18.10;99.90;;;;;;5115262;28;21035;-50
2023/10/02 07:08:21;;;;;;;24.57;11.70;;;18.20;99.90;;;;;;5115312;28;20701;-52
2023/10/02 07:10:48;;;;;;;21.23;12.00;;;18.30;99.90;;;;;;5115039;28;20189;-52
2023/10/02 07:13:20;;;;;;;28.90;12.37;;;18.40;99.90;;;;;;5115198;28;20880;-52
2023/10/02 07:15:55;;;;;;;25.33;12.70;;;18.50;99.90;;;;;;5114981;28;20399;-52
2023/10/02 07:18:35;;;;;;;25.70;12.77;;;18.60;99.90;;;;;;5115071;28;20410;-51
2023/10/02 07:21:01;;;;;;;24.97;12.70;;;18.60;99.00;;;;;;5115083;28;20453;-52
2023/10/02 07:23:30;;;;;;;23.33;13.20;;;18.70;99.90;;;;;;5114837;27;20411;-52
2023/10/02 07:25:56;;;;;;;25.77;12.00;;;18.80;86.80;;;;;;5114946;28;20553;-52
2023/10/02 07:28:22;;;;;;;21.37;11.73;;;19.00;51.30;;;;;;5115077;28;20821;-52
2023/10/02 07:30:50;;;;;;;21.77;12.10;;;19.20;15.40;;;;;;5114587;28;20184;-52
2023/10/02 07:33:18;;;;;;;24.03;12.30;;;19.40;1.00;;;;;;5114927;28;20580;-52
2023/10/02 07:35:52;;;;;;;23.70;12.03;;;19.60;1.00;;;;;;5114817;28;20509;-53
2023/10/02 07:38:19;;;;;;;25.97;13.20;;;19.70;1.00;;;;;;5114563;28;20429;-53
2023/10/02 07:40:48;;;;;;;27.60;12.50;;;19.90;1.00;;;;;;5114486;28;20402;-52
2023/10/02 07:43:21;;;;;;;25.67;13.53;;;19.90;1.00;;;;;;5114674;28;20426;-52
2023/10/02 07:46:14;;;;;;;27.87;13.40;;;20.00;1.00;;;;;;5114549;28;20863;-53
2023/10/02 07:48:55;;;;;;;20.57;11.60;;;20.00;1.00;;;;;;5115025;28;20769;-51
2023/10/02 07:51:30;;;;;;;25.50;12.40;;;20.20;1.00;;;;;;5114986;28;20823;-52
2023/10/02 07:53:58;;;;;;;25.20;13.07;;;20.30;1.00;;;;;;5114617;27;20509;-51
2023/10/02 07:56:25;;;;;;;21.97;12.07;;;20.40;1.00;;;;;;5114848;28;20413;-53
2023/10/02 07:58:55;;;;;;;22.77;11.90;;;20.50;1.00;;;;;;5114390;28;20449;-53
2023/10/02 08:01:27;;;;;;;23.23;12.20;;;20.80;1.00;;;;;;5113978;28;20933;-52
2023/10/02 08:03:52;;;;;;;25.27;13.10;;;21.20;1.00;;;;;;5114234;28;20407;-52
2023/10/02 08:06:22;;;;;;;23.63;12.77;;;21.80;1.00;;;;;;5113932;28;20473;-52
2023/10/02 08:11:50;;;;;;;24.20;13.27;;;21.90;1.00;;;;;;5114357;28;20449;-51
2023/10/02 08:14:38;;;;;;;22.60;12.07;;;21.40;1.00;;;;;;5114015;28;20403;-52
2023/10/02 08:17:27;;;;;;;22.30;12.17;;;21.20;1.00;;;;;;5113736;28;20509;-50
2023/10/02 08:19:54;;;;;;;28.00;13.50;;;21.00;1.00;;;;;;5113971;28;20419;-51
2023/10/02 08:22:24;;;;;;;23.40;13.07;;;21.20;1.00;;;;;;5114024;28;20417;-53
2023/10/02 08:24:52;;;;;;;24.07;13.13;;;21.30;1.00;;;;;;5113773;28;20525;-53
2023/10/02 08:27:19;;;;;;;25.10;13.00;;;21.40;1.00;;;;;;5113882;28;20419;-53
2023/10/02 08:29:45;;;;;;;23.50;12.40;;;21.40;1.00;;;;;;5113496;28;20464;-53
2023/10/02 08:32:11;;;;;;;25.20;13.30;;;21.40;1.00;;;;;;5113904;28;20410;-52
2023/10/02 08:34:36;;;;;;;26.00;13.00;;;21.50;1.00;;;;;;5113740;27;20180;-51
2023/10/02 08:37:05;;;;;;;22.60;12.50;;;21.60;1.00;;;;;;5113254;28;20914;-51
2023/10/02 08:39:41;;;;;;;23.73;12.00;;;21.80;1.00;;;;;;5113355;28;20204;-53
2023/10/02 08:42:11;;;;;;;24.90;12.20;;;21.80;1.00;;;;;;5113536;28;20489;-51
2023/10/02 08:44:43;;;;;;;23.50;11.90;;;22.00;1.00;;;;;;5113372;28;20522;-53
2023/10/02 08:47:24;;;;;;;24.90;13.20;;;22.00;1.00;;;;;;5113397;28;20399;-51
2023/10/02 08:50:04;;;;;;;23.93;13.10;;;21.80;1.00;;;;;;5113370;28;20406;-53
2023/10/02 08:52:47;;;;;;;23.10;11.87;;;21.60;1.00;;;;;;5113091;28;20398;-53
2023/10/02 08:55:36;;;;;;;25.40;12.77;;;21.50;1.00;;;;;;5113413;28;20433;-51
2023/10/02 08:58:17;;;;;;;27.90;12.97;;;21.40;1.00;;;;;;5113011;28;20415;-51
2023/10/02 09:04:03;;;;;;;29.00;13.03;;;21.40;1.00;;;;;;5113217;28;20407;-53
2023/10/02 09:06:37;;;;;;;21.40;11.87;;;21.40;1.00;;;;;;5113031;28;20972;-53
2023/10/02 09:09:16;;;;;;;26.30;12.07;;;21.50;1.00;;;;;;5113027;28;20391;-52
2023/10/02 09:11:44;;;;;;;23.90;12.40;;;21.70;1.00;;;;;;5112791;28;20489;-53
2023/10/02 09:14:21;;;;;;;25.63;13.37;;;21.90;1.00;;;;;;5113196;28;20487;-52
2023/10/02 09:19:53;;;;;;;24.53;12.20;;;21.80;1.00;;;;;;5113233;28;20402;-53
2023/10/02 09:22:20;;;;;;;22.80;12.00;;;21.70;1.00;;;;;;5112865;28;20402;-53
2023/10/02 09:25:09;;;;;;;23.07;12.23;;;21.90;1.00;;;;;;5112805;28;20458;-53
2023/10/02 09:27:41;;;;;;;23.80;12.30;;;22.00;1.00;;;;;;5112802;28;20415;-53
2023/10/02 09:30:36;;;;;;;21.17;12.07;;;22.10;1.00;;;;;;5112519;28;20808;-51
2023/10/02 09:33:22;;;;;;;21.87;12.50;;;22.10;1.00;;;;;;5112716;28;20418;-51
2023/10/02 09:35:51;;;;;;;22.07;12.77;;;22.10;1.00;;;;;;5112787;28;20398;-53
2023/10/02 09:38:22;;;;;;;25.60;13.73;;;22.10;1.00;;;;;;5112431;28;20586;-53
2023/10/02 09:43:30;;;;;;;29.30;13.40;;;22.30;1.00;;;;;;5112808;28;20746;-53
2023/10/02 09:46:00;;;;;;;25.47;13.67;;;22.30;1.00;;;;;;5112480;28;20496;-51
2023/10/02 09:51:16;;;;;;;22.17;12.57;;;22.40;1.00;;;;;;5112344;28;20426;-52
2023/10/02 09:57:05;;;;;;;24.20;12.97;;;22.40;1.00;;;;;;5088824;28;20248;-53
2023/10/02 09:59:45;;;;;;;23.93;11.83;;;22.30;1.00;;;;;;5112511;28;20460;-52
2023/10/02 10:02:49;;;;;;;26.00;11.97;;;22.50;1.00;;;;;;5112465;28;20403;-51
2023/10/02 10:10:58;;;;;;;30.50;13.10;;;22.70;1.00;;;;;;5112504;28;20394;-53
2023/10/02 10:13:24;;;;;;;24.70;12.83;;;23.00;1.00;;;;;;5049587;28;20417;-52
2023/10/02 10:15:51;;;;;;;24.37;13.43;;;23.10;1.00;;;;;;5049390;28;21054;-53
2023/10/02 10:18:17;;;;;;;22.67;10.93;;;23.30;1.00;;;;;;5080706;28;20410;-53
2023/10/02 10:20:44;;;;;;;23.53;11.87;;;23.60;1.00;;;;;;5112312;28;20811;-51
2023/10/02 10:23:31;;;;;;;21.83;11.50;;;23.90;1.00;;;;;;5112529;28;20180;-49
2023/10/02 10:26:07;;;;;;;25.37;12.10;;;24.20;1.00;;;;;;5115803;28;20465;-48
2023/10/02 10:28:33;;;;;;;23.83;11.20;;;24.40;1.00;;;;;;5115788;27;20771;-50
2023/10/02 10:31:02;;;;;;;26.10;13.17;;;24.40;1.00;;;;;;5115728;28;20429;-49
2023/10/02 10:33:33;;;;;;;23.53;11.77;;;24.50;1.00;;;;;;5115723;28;20415;-50
2023/10/02 10:36:02;;;;;;;23.20;12.23;;;24.90;1.00;;;;;;5116055;28;20399;-49
2023/10/02 10:38:31;;;;;;;24.23;12.43;;;25.50;1.00;;;;;;5115674;28;20418;-51
2023/10/02 10:41:00;;;;;;;22.43;11.57;;;26.20;1.00;;;;;;5115895;28;20414;-49
2023/10/02 10:43:43;;;;;;;22.00;12.03;;;26.90;1.00;;;;;;5115462;27;20987;-50
2023/10/02 10:46:27;;;;;;;27.00;11.90;;;27.50;1.00;;;;;;5115724;28;20450;-49
2023/10/02 10:49:26;;;;;;;18.60;11.40;;;27.70;1.00;;;;;;5115531;28;20409;-50
2023/10/02 10:51:52;;;;;;;20.50;11.00;;;28.10;1.00;;;;;;5115642;28;20413;-51
2023/10/02 10:54:30;;;;;;;20.20;11.47;;;28.20;1.00;;;;;;5115613;28;20417;-50
2023/10/02 11:00:23;;;;;;;23.70;11.90;;;28.20;1.00;;;;;;5115624;28;20493;-51
2023/10/02 11:03:14;;;;;;;20.20;11.00;;;28.20;1.00;;;;;;5115078;28;20418;-51
2023/10/02 11:05:41;;;;;;;23.83;11.87;;;28.10;1.00;;;;;;5115374;28;20466;-51
2023/10/02 11:08:25;;;;;;;25.37;12.37;;;28.10;1.00;;;;;;5115338;28;20442;-50
2023/10/02 11:11:21;;;;;;;20.43;10.50;;;27.90;1.00;;;;;;5115059;28;20434;-51
2023/10/02 11:13:51;;;;;;;20.40;10.97;;;28.00;1.00;;;;;;5115380;28;20399;-51
2023/10/02 11:16:36;;;;;;;18.93;10.27;;;28.30;1.00;;;;;;5115118;27;20403;-51
2023/10/02 11:22:14;;;;;;;17.30;10.63;;;28.50;1.00;;;;;;5115615;28;20398;-51
2023/10/02 11:24:43;;;;;;;18.27;10.40;;;28.60;1.00;;;;;;5114977;28;20482;-51
2023/10/02 11:27:15;;;;;;;20.90;10.10;;;28.50;1.00;;;;;;5115008;28;20479;-50
2023/10/02 11:29:41;;;;;;;20.80;11.53;;;28.70;1.00;;;;;;5114672;28;20496;-52
2023/10/02 11:32:21;;;;;;;19.60;10.53;;;28.50;1.00;;;;;;5114709;28;20425;-50
2023/10/02 11:34:48;;;;;;;20.77;11.10;;;27.80;1.00;;;;;;5114303;28;20906;-52
2023/10/02 11:37:15;;;;;;;22.50;10.70;;;27.10;1.00;;;;;;5114930;28;20502;-50
2023/10/02 11:39:42;;;;;;;22.00;10.43;;;26.60;1.00;;;;;;5114704;28;20415;-51
2023/10/02 11:42:08;;;;;;;22.50;10.63;;;26.20;1.00;;;;;;5114638;28;20407;-50
2023/10/02 11:44:34;;;;;;;27.70;11.20;;;25.90;1.00;;;;;;5114279;28;20418;-51
2023/10/02 11:47:00;;;;;;;17.80;10.47;;;25.80;1.00;;;;;;5114553;28;20492;-50
2023/10/02 11:49:28;;;;;;;17.67;10.33;;;26.30;1.00;;;;;;5114465;28;20188;-51
2023/10/02 11:52:01;;;;;;;17.07;9.70;;;26.80;1.00;;;;;;5114305;28;20188;-50
2023/10/02 11:54:27;;;;;;;18.10;10.10;;;26.70;1.00;;;;;;5114081;28;20926;-51
2023/10/02 11:56:53;;;;;;;21.10;10.83;;;26.30;1.00;;;;;;5113927;28;20499;-50
2023/10/02 11:59:19;;;;;;;21.10;11.10;;;26.40;1.00;;;;;;5113914;28;20185;-51
2023/10/02 12:01:47;;;;;;;20.70;10.83;;;26.50;1.00;;;;;;5114393;28;20180;-51
2023/10/02 12:04:14;;;;;;;22.20;11.97;;;26.70;1.00;;;;;;5114348;28;20177;-50
2023/10/02 12:06:40;;;;;;;19.17;10.70;;;26.70;1.00;;;;;;5113732;28;21032;-51
2023/10/02 12:09:06;;;;;;;20.67;11.60;;;26.90;1.00;;;;;;5114034;28;20423;-50
2023/10/02 12:11:34;;;;;;;22.53;11.90;;;26.70;1.00;;;;;;5114046;28;20432;-51
2023/10/02 12:14:00;;;;;;;22.70;11.90;;;26.30;1.00;;;;;;5113748;28;20276;-50
2023/10/02 12:16:26;;;;;;;24.17;11.27;;;26.10;1.00;;;;;;5113622;28;20430;-51
2023/10/02 12:18:53;;;;;;;25.00;12.27;;;26.00;1.00;;;;;;5113795;28;20399;-50
2023/10/02 12:21:21;;;;;;;20.40;11.30;;;26.00;1.00;;;;;;5114012;28;20456;-51
2023/10/02 12:23:48;;;;;;;21.20;11.57;;;25.80;1.00;;;;;;5113818;28;20470;-51
2023/10/02 12:26:15;;;;;;;22.20;11.20;;;25.60;1.00;;;;;;5113854;28;20493;-50
2023/10/02 12:28:41;;;;;;;22.43;12.10;;;25.30;1.00;;;;;;5113662;28;20425;-51
2023/10/02 12:31:08;;;;;;;18.63;10.07;;;25.10;1.00;;;;;;5113379;28;20426;-51
2023/10/02 12:33:35;;;;;;;23.80;12.30;;;24.90;1.00;;;;;;5113585;28;20407;-51
2023/10/02 12:36:02;;;;;;;20.57;10.90;;;24.70;1.00;;;;;;5113551;28;20459;-50
2023/10/02 12:38:28;;;;;;;21.30;10.73;;;24.50;1.00;;;;;;5113255;28;20507;-51
2023/10/02 12:40:53;;;;;;;18.10;10.43;;;24.50;1.00;;;;;;5113383;28;20841;-50
2023/10/02 12:43:19;;;;;;;20.10;11.10;;;24.30;1.00;;;;;;5113111;28;20176;-52
2023/10/02 12:45:44;;;;;;;20.37;11.70;;;24.40;1.00;;;;;;5112752;28;20303;-51
2023/10/02 12:48:15;;;;;;;18.87;10.30;;;24.90;1.00;;;;;;5112881;28;20238;-50
2023/10/02 12:50:41;;;;;;;24.80;11.80;;;25.60;1.00;;;;;;5113065;28;20242;-51
2023/10/02 12:53:08;;;;;;;21.00;10.73;;;26.40;1.00;;;;;;5113118;28;20402;-50
2023/10/02 12:55:40;;;;;;;29.10;11.73;;;27.40;1.00;;;;;;5113050;28;20446;-51
2023/10/02 12:58:05;;;;;;;19.93;11.03;;;28.30;1.00;;;;;;5113187;28;20412;-50
2023/10/02 13:00:31;;;;;;;21.30;11.67;;;29.10;1.00;;;;;;5113018;28;20411;-51
2023/10/02 13:02:58;;;;;;;22.17;11.40;;;29.50;1.00;;;;;;5113011;28;20277;-50
2023/10/02 13:05:25;;;;;;;24.07;11.80;;;29.20;1.00;;;;;;5112983;28;20454;-51
2023/10/02 13:07:55;;;;;;;20.50;11.77;;;28.50;1.00;;;;;;5112939;28;20517;-51
2023/10/02 13:10:22;;;;;;;19.73;11.17;;;27.80;1.00;;;;;;5112918;28;20422;-51
2023/10/02 13:12:49;;;;;;;19.10;11.67;;;27.20;1.00;;;;;;5112763;28;20447;-51
2023/10/02 13:15:15;;;;;;;19.70;11.13;;;26.60;1.00;;;;;;5112811;28;20422;-50
2023/10/02 13:17:41;;;;;;;22.33;10.77;;;26.00;1.00;;;;;;5112894;28;20475;-50
2023/10/02 13:20:10;;;;;;;19.60;11.13;;;25.80;1.00;;;;;;5112769;28;20407;-50
2023/10/02 13:22:36;;;;;;;18.17;10.30;;;25.60;1.00;;;;;;5112453;28;20273;-51
2023/10/02 13:25:05;;;;;;;20.97;11.37;;;25.40;1.00;;;;;;5112557;28;20485;-50
2023/10/02 13:27:31;;;;;;;19.33;10.17;;;25.10;1.00;;;;;;5112654;28;20415;-51
2023/10/02 13:29:58;;;;;;;18.80;10.47;;;25.00;1.00;;;;;;5112330;28;20910;-50
2023/10/02 13:32:23;;;;;;;23.63;11.47;;;24.90;1.00;;;;;;5112421;28;20468;-52
2023/10/02 13:34:51;;;;;;;25.43;11.83;;;24.90;1.00;;;;;;5112537;28;20942;-51
2023/10/02 13:37:17;;;;;;;22.30;11.07;;;24.70;1.00;;;;;;5112585;28;20206;-50
2023/10/02 13:39:43;;;;;;;22.33;11.90;;;24.60;1.00;;;;;;5112533;28;20415;-51
2023/10/02 13:42:08;;;;;;;22.60;12.00;;;24.40;1.00;;;;;;5112512;28;20173;-50
2023/10/02 13:44:34;;;;;;;23.23;11.13;;;24.10;1.00;;;;;;5112333;28;20536;-50
2023/10/02 13:47:00;;;;;;;25.03;12.00;;;24.10;1.00;;;;;;5112141;28;20205;-50
2023/10/02 13:49:27;;;;;;;20.87;11.83;;;24.00;1.00;;;;;;5112533;28;20196;-51
2023/10/02 13:51:52;;;;;;;20.53;11.33;;;24.20;1.00;;;;;;5112393;28;20398;-50
2023/10/02 13:54:18;;;;;;;22.90;11.70;;;24.20;1.00;;;;;;5112782;28;20743;-49
2023/10/02 13:56:45;;;;;;;22.17;11.97;;;24.40;1.00;;;;;;5112779;28;20185;-51